createdAt,value
2023-03-16T00:02:13.218Z,3.35
2023-03-16T00:07:09.939Z,3.47
2023-03-16T00:12:04.980Z,3.42
2023-03-16T00:16:56.721Z,2.65
2023-03-16T00:21:50.233Z,2.85
2023-03-16T00:26:42.359Z,3.53
2023-03-16T00:31:34.704Z,3.38
2023-03-16T00:36:26.323Z,4.00
2023-03-16T00:41:17.945Z,4.57
2023-03-16T00:46:12.567Z,4.70
2023-03-16T00:51:06.711Z,3.35
2023-03-16T00:55:58.479Z,4.55
2023-03-16T01:00:51.370Z,6.43
2023-03-16T01:05:43.172Z,6.65
2023-03-16T01:10:36.218Z,8.18
2023-03-16T01:15:27.789Z,7.57
2023-03-16T01:20:19.901Z,7.43
2023-03-16T01:25:12.790Z,6.72
2023-03-16T01:30:06.213Z,6.60
2023-03-16T01:34:57.805Z,6.75
2023-03-16T01:39:50.305Z,6.97
2023-03-16T01:45:05.800Z,6.07
2023-03-16T01:49:57.641Z,8.88
2023-03-16T01:54:54.397Z,8.65
2023-03-16T01:59:56.533Z,7.95
2023-03-16T02:04:57.197Z,7.00
2023-03-16T02:09:51.789Z,6.38
2023-03-16T02:14:45.641Z,6.70
2023-03-16T02:20:14.478Z,5.88
2023-03-16T02:25:06.606Z,6.88
2023-03-16T02:30:17.057Z,5.38
2023-03-16T02:35:10.483Z,5.18
2023-03-16T02:40:15.466Z,6.18
2023-03-16T02:45:07.652Z,5.65
2023-03-16T02:49:59.337Z,4.95
2023-03-16T02:54:50.920Z,3.67
2023-03-16T02:59:42.565Z,4.15
2023-03-16T03:04:34.187Z,4.43
2023-03-16T03:09:25.803Z,4.63
2023-03-16T03:14:17.389Z,4.60
2023-03-16T03:24:19.303Z,4.25
2023-03-16T03:29:10.962Z,4.22
2023-03-16T03:34:06.718Z,3.50
2023-03-16T03:38:58.428Z,3.67
2023-03-16T03:43:50.050Z,2.42
2023-03-16T03:48:41.624Z,2.33
2023-03-16T03:53:33.314Z,1.40
2023-03-16T03:58:24.957Z,1.63
2023-03-16T04:03:17.865Z,1.65
2023-03-16T04:08:09.588Z,1.60
2023-03-16T04:13:01.278Z,1.00
2023-03-16T04:17:52.883Z,0.90
2023-03-16T04:22:44.782Z,0.80
2023-03-16T04:27:36.704Z,0.75
2023-03-16T04:32:28.318Z,1.02
2023-03-16T04:37:19.954Z,1.30
2023-03-16T04:42:12.526Z,0.65
2023-03-16T04:47:04.116Z,0.70
2023-03-16T04:51:55.867Z,0.60
2023-03-16T04:56:47.472Z,0.60
2023-03-16T05:01:39.203Z,0.40
2023-03-16T05:06:31.252Z,0.50
2023-03-16T05:11:22.890Z,0.60
2023-03-16T05:16:14.599Z,0.40
2023-03-16T05:21:06.456Z,0.40
2023-03-16T05:26:01.103Z,0.40
2023-03-16T05:30:52.848Z,0.50
2023-03-16T05:35:44.543Z,0.50
2023-03-16T05:40:37.402Z,0.50
2023-03-16T05:45:29.103Z,0.40
2023-03-16T05:50:20.828Z,0.30
2023-03-16T05:55:14.987Z,0.30
2023-03-16T06:00:18.345Z,0.30
2023-03-16T06:05:11.248Z,0.30
2023-03-16T06:10:03.205Z,0.50
2023-03-16T06:14:54.875Z,0.30
2023-03-16T06:19:46.612Z,0.30
2023-03-16T06:24:38.311Z,0.30
2023-03-16T06:29:31.169Z,0.30
2023-03-16T06:34:22.826Z,0.40
2023-03-16T06:39:14.664Z,0.50
2023-03-16T06:44:06.381Z,0.60
2023-03-16T06:48:58.011Z,0.68
2023-03-16T06:53:49.577Z,0.60
2023-03-16T06:58:41.871Z,0.70
2023-03-16T07:03:33.765Z,0.40
2023-03-16T07:08:25.646Z,0.60
2023-03-16T07:13:17.805Z,0.40
2023-03-16T07:18:09.402Z,0.40
2023-03-16T07:23:00.982Z,0.98
2023-03-16T07:27:52.742Z,0.40
2023-03-16T07:32:44.483Z,0.40
2023-03-16T07:37:37.118Z,0.45
2023-03-16T07:42:28.736Z,0.60
2023-03-16T07:47:20.500Z,0.40
2023-03-16T07:52:15.493Z,0.75
2023-03-16T07:57:08.205Z,0.30
2023-03-16T08:01:59.839Z,0.30
2023-03-16T08:07:00.303Z,0.35
2023-03-16T08:11:51.947Z,0.43
2023-03-16T08:16:43.674Z,0.40
2023-03-16T08:21:45.766Z,0.40
2023-03-16T08:26:48.100Z,0.40
2023-03-16T08:31:42.911Z,0.50
2023-03-16T08:36:34.641Z,0.40
2023-03-16T08:41:26.250Z,0.40
2023-03-16T08:46:17.863Z,0.40
2023-03-16T08:51:10.524Z,0.40
2023-03-16T08:56:07.278Z,0.60
2023-03-16T09:00:59.719Z,0.45
2023-03-16T09:05:51.386Z,0.50
2023-03-16T09:10:43.371Z,0.30
2023-03-16T09:15:35.575Z,0.30
2023-03-16T09:20:30.065Z,0.40
2023-03-16T09:25:22.782Z,0.30
2023-03-16T09:30:15.332Z,0.30
2023-03-16T09:35:07.371Z,0.40
2023-03-16T09:40:06.499Z,0.40
2023-03-16T09:45:26.250Z,0.50
2023-03-16T09:50:28.105Z,0.40
2023-03-16T09:55:31.499Z,0.63
2023-03-16T10:00:27.660Z,0.30
2023-03-16T10:05:24.282Z,0.30
2023-03-16T10:10:23.733Z,0.30
2023-03-16T10:15:19.523Z,0.30
2023-03-16T10:20:17.622Z,0.30
2023-03-16T10:30:29.396Z,0.50
2023-03-16T10:35:24.045Z,0.30
2023-03-16T10:40:16.396Z,0.30
2023-03-16T10:45:25.548Z,0.30
2023-03-16T10:50:25.170Z,0.45
2023-03-16T10:55:24.055Z,0.68
2023-03-16T11:00:22.257Z,0.50
2023-03-16T11:05:17.979Z,0.40
2023-03-16T11:10:36.252Z,0.50
2023-03-16T11:15:45.752Z,0.50
2023-03-16T11:20:38.796Z,1.10
2023-03-16T11:25:51.887Z,0.50
2023-03-16T11:31:08.585Z,0.50
2023-03-16T11:36:39.057Z,0.47
2023-03-16T11:41:45.912Z,0.47
2023-03-16T11:46:42.781Z,0.40
2023-03-16T11:51:53.678Z,0.40
2023-03-16T11:56:54.851Z,0.40
2023-03-16T12:02:07.623Z,0.40
2023-03-16T12:07:30.332Z,0.40
2023-03-16T12:12:53.876Z,1.10
2023-03-16T12:17:46.752Z,0.40
2023-03-16T12:22:44.532Z,0.40
2023-03-16T12:27:40.104Z,0.40
2023-03-16T12:32:53.541Z,0.35
2023-03-16T12:37:57.634Z,0.30
2023-03-16T12:43:17.753Z,0.30
2023-03-16T12:48:21.220Z,0.28
2023-03-16T12:53:40.532Z,0.20
2023-03-16T12:58:33.065Z,0.30
2023-03-16T13:03:25.928Z,0.20
2023-03-16T13:08:21.057Z,0.22
2023-03-16T13:13:16.174Z,0.20
2023-03-16T13:18:20.222Z,0.30
2023-03-16T13:23:24.143Z,0.20
2023-03-16T13:28:17.287Z,0.20
2023-03-16T13:33:22.966Z,0.10
2023-03-16T13:38:16.574Z,0.15
2023-03-16T13:43:15.978Z,0.20
2023-03-16T13:48:13.235Z,0.20
2023-03-16T13:53:13.908Z,0.20
2023-03-16T13:58:05.964Z,0.20
2023-03-16T14:02:59.453Z,0.20
2023-03-16T14:07:52.260Z,0.20
2023-03-16T14:12:54.814Z,0.20
2023-03-16T14:17:47.012Z,0.20
2023-03-16T14:22:38.888Z,0.28
2023-03-16T14:27:39.842Z,0.30
2023-03-16T14:32:33.587Z,0.20
2023-03-16T14:37:35.775Z,0.30
2023-03-16T14:42:30.929Z,0.40
2023-03-16T14:47:33.806Z,0.30
2023-03-16T14:52:34.600Z,0.40
2023-03-16T14:57:27.075Z,0.50
2023-03-16T15:02:31.968Z,0.40
2023-03-16T15:07:31.400Z,0.50
2023-03-16T15:12:25.265Z,0.45
2023-03-16T15:17:16.910Z,0.50
2023-03-16T15:22:12.562Z,0.50
2023-03-16T15:27:04.485Z,0.40
2023-03-16T15:31:56.180Z,0.60
2023-03-16T15:36:47.877Z,0.30
2023-03-16T15:41:47.481Z,0.40
2023-03-16T15:46:39.548Z,0.40
2023-03-16T15:51:31.660Z,0.40
2023-03-16T15:56:30.003Z,0.50
2023-03-16T16:01:25.781Z,0.50
2023-03-16T16:06:17.581Z,0.50
2023-03-16T16:11:29.655Z,0.70
2023-03-16T16:16:21.349Z,0.40
2023-03-16T16:21:17.194Z,0.50
2023-03-16T16:26:21.753Z,0.55
2023-03-16T16:31:14.396Z,0.70
2023-03-16T16:36:12.203Z,0.60
2023-03-16T16:41:09.292Z,0.50
2023-03-16T16:46:04.883Z,0.50
2023-03-16T16:50:56.732Z,0.50
2023-03-16T16:55:48.652Z,0.40
2023-03-16T17:00:42.431Z,0.50
2023-03-16T17:05:34.346Z,0.40
2023-03-16T17:10:27.852Z,0.70
2023-03-16T17:15:28.485Z,0.47
2023-03-16T17:20:25.397Z,1.27
2023-03-16T17:25:17.292Z,0.50
2023-03-16T17:30:30.359Z,0.50
2023-03-16T17:35:22.726Z,0.40
2023-03-16T17:40:20.926Z,0.63
2023-03-16T17:45:22.385Z,0.80
2023-03-16T17:50:25.115Z,0.80
2023-03-16T17:55:20.443Z,0.60
2023-03-16T18:00:32.479Z,1.00
2023-03-16T18:05:29.646Z,1.05
2023-03-16T18:10:25.181Z,0.90
2023-03-16T18:15:18.722Z,0.82
2023-03-16T18:20:31.140Z,1.30
2023-03-16T18:25:36.317Z,0.73
2023-03-16T18:30:29.425Z,1.00
2023-03-16T18:35:21.559Z,0.77
2023-03-16T18:40:15.971Z,1.00
2023-03-16T18:45:11.798Z,1.05
2023-03-16T18:50:03.610Z,1.02
2023-03-16T18:54:55.800Z,0.93
2023-03-16T18:59:47.416Z,1.33
2023-03-16T19:04:39.783Z,1.35
2023-03-16T19:09:32.532Z,1.45
2023-03-16T19:14:31.698Z,1.20
2023-03-16T19:19:24.850Z,1.48
2023-03-16T19:24:44.136Z,1.55
2023-03-16T19:29:36.416Z,1.50
2023-03-16T19:34:28.676Z,1.83
2023-03-16T19:39:20.975Z,2.33
2023-03-16T19:44:17.958Z,2.20
2023-03-16T19:49:16.896Z,2.10
2023-03-16T19:54:21.253Z,2.22
2023-03-16T19:59:12.948Z,2.70
2023-03-16T20:04:04.748Z,2.70
2023-03-16T20:08:56.486Z,2.10
2023-03-16T20:13:49.088Z,2.45
2023-03-16T20:18:40.669Z,3.08
2023-03-16T20:23:32.686Z,3.17
2023-03-16T20:28:32.888Z,3.63
2023-03-16T20:33:26.067Z,3.55
2023-03-16T20:38:17.809Z,3.35
2023-03-16T20:43:23.979Z,3.85
2023-03-16T20:48:15.893Z,4.05
2023-03-16T20:53:08.672Z,4.25
2023-03-16T20:58:01.448Z,5.15
2023-03-16T21:02:54.974Z,4.70
2023-03-16T21:07:46.876Z,4.43
2023-03-16T21:12:42.280Z,4.63
2023-03-16T21:17:37.891Z,4.55
2023-03-16T21:22:37.617Z,5.32
2023-03-16T21:27:32.570Z,5.90
2023-03-16T21:32:27.268Z,5.55
2023-03-16T21:37:28.454Z,4.32
2023-03-16T21:42:20.494Z,4.88
2023-03-16T21:47:29.146Z,5.03
2023-03-16T21:52:31.258Z,5.22
2023-03-16T21:57:23.143Z,5.00
2023-03-16T22:02:26.117Z,4.35
2023-03-16T22:07:18.481Z,4.55
2023-03-16T22:12:14.036Z,4.55
2023-03-16T22:17:07.510Z,4.63
2023-03-16T22:21:59.508Z,5.05
2023-03-16T22:26:52.033Z,4.30
2023-03-16T22:31:43.725Z,3.60
2023-03-16T22:36:35.484Z,5.57
2023-03-16T22:41:29.200Z,5.40
2023-03-16T22:46:24.377Z,5.70
2023-03-16T22:51:24.154Z,5.70
2023-03-16T22:56:15.975Z,5.68
2023-03-16T23:01:17.893Z,5.45
2023-03-16T23:06:21.958Z,6.55
2023-03-16T23:11:19.248Z,5.95
2023-03-16T23:16:21.345Z,5.57
2023-03-16T23:21:15.639Z,5.30
2023-03-16T23:26:20.278Z,5.80
2023-03-16T23:31:14.902Z,5.32
2023-03-16T23:36:14.569Z,5.38
2023-03-16T23:41:06.934Z,4.57
2023-03-16T23:45:58.778Z,4.57
2023-03-16T23:50:54.894Z,4.88
2023-03-16T23:55:48.302Z,4.55
